Time;durP1;ratioP1;P1;durP2;ratioP2;P2;SDS_P1;SDS_P2;PMS_P1;PMS_P2;Temp;Humidity;BMP_temperature;BMP_pressure;BME280_temperature;BME280_humidity;BME280_pressure;Samples;Min_cycle;Max_cycle;Signal;HPM_P1;HPM_P2
2023/10/23 00:00:11;;;;;;;;;;;;;;;;;;6176548;23;19924;-88
2023/10/23 00:02:40;;;;;;;;;;;;;;;;;;6197585;23;19995;-89
2023/10/23 00:05:06;;;;;;;;;;;;;;;;;;6172803;23;19927;-88
2023/10/23 00:07:32;;;;;;;;;;;;;;;;;;6201323;23;20332;-88
2023/10/23 00:09:58;;;;;;;;;;;;;;;;;;6177148;23;19969;-89
2023/10/23 00:12:24;;;;;;;;;;;;;;;;;;6204246;23;19932;-88
2023/10/23 00:14:50;;;;;;;;;;;;;;;;;;6202724;23;19919;-88
2023/10/23 00:17:16;;;;;;;;;;;;;;;;;;6180061;23;19951;-89
2023/10/23 00:19:42;;;;;;;;;;;;;;;;;;6201072;23;20021;-88
2023/10/23 00:22:08;;;;;;;;;;;;;;;;;;6180973;23;19930;-88
2023/10/23 00:24:34;;;;;;;;;;;;;;;;;;6206863;23;19915;-89
2023/10/23 00:27:00;;;;;;;;;;;;;;;;;;6201648;23;20339;-89
2023/10/23 00:29:25;;;;;;;;;;;;;;;;;;6180912;23;19919;-89
2023/10/23 00:31:51;;;;;;;;;;;;;;;;;;6203840;23;19962;-89
2023/10/23 00:34:17;;;;;;;;;;;;;;;;;;6203127;23;19923;-89
2023/10/23 00:36:43;;;;;;;;;;;;;;;;;;6229258;23;19926;-89
2023/10/23 00:39:09;;;;;;;;;;;;;;;;;;6205070;23;19955;-88
2023/10/23 00:41:35;;;;;;;;;;;;;;;;;;6202563;23;19924;-88
2023/10/23 00:44:01;;;;;;;;;;;;;;;;;;6200613;23;19933;-89
2023/10/23 00:46:27;;;;;;;;;;;;;;;;;;6202629;23;19919;-88
2023/10/23 00:48:53;;;;;;;;;;;;;;;;;;6177647;23;19974;-88
2023/10/23 00:51:19;;;;;;;;;;;;;;;;;;6203431;23;20248;-88
2023/10/23 00:53:46;;;;;;;;;;;;;;;;;;6201133;23;19927;-89
2023/10/23 00:56:12;;;;;;;;;;;;;;;;;;6198792;23;19920;-88
2023/10/23 00:58:42;;;;;;;;;;;;;;;;;;6202163;23;19986;-88
2023/10/23 01:01:09;;;;;;;;;;;;;;;;;;6205598;23;19923;-88
2023/10/23 01:03:35;;;;;;;;;;;;;;;;;;6204351;23;19938;-88
2023/10/23 01:06:01;;;;;;;;;;;;;;;;;;6176170;23;19924;-88
2023/10/23 01:08:27;;;;;;;;;;;;;;;;;;6204780;23;20295;-88
2023/10/23 01:10:55;;;;;;;;;;;;;;;;;;6202314;23;20069;-88
2023/10/23 01:13:21;;;;;;;;;;;;;;;;;;6180412;23;19926;-88
2023/10/23 01:15:47;;;;;;;;;;;;;;;;;;6203835;23;19919;-88
2023/10/23 01:18:13;;;;;;;;;;;;;;;;;;6231462;22;20325;-88
2023/10/23 01:20:39;;;;;;;;;;;;;;;;;;6178890;23;20443;-88
2023/10/23 01:23:05;;;;;;;;;;;;;;;;;;6204653;23;20222;-88
2023/10/23 01:25:31;;;;;;;;;;;;;;;;;;6204433;23;19923;-88
2023/10/23 01:27:57;;;;;;;;;;;;;;;;;;6177086;23;19920;-88
2023/10/23 01:30:23;;;;;;;;;;;;;;;;;;6202731;23;19920;-88
2023/10/23 01:32:49;;;;;;;;;;;;;;;;;;6201096;23;19958;-89
2023/10/23 01:35:14;;;;;;;;;;;;;;;;;;6199668;23;19926;-88
2023/10/23 01:37:45;;;;;;;;;;;;;;;;;;6176190;23;19919;-88
2023/10/23 01:40:11;;;;;;;;;;;;;;;;;;6204157;23;19959;-88
2023/10/23 01:42:37;;;;;;;;;;;;;;;;;;6202807;23;20011;-88
2023/10/23 01:45:03;;;;;;;;;;;;;;;;;;6175504;23;19920;-88
2023/10/23 01:47:29;;;;;;;;;;;;;;;;;;6202634;23;19919;-88
2023/10/23 01:49:55;;;;;;;;;;;;;;;;;;6202186;23;20427;-88
2023/10/23 01:52:21;;;;;;;;;;;;;;;;;;6204734;23;20423;-88
2023/10/23 01:54:46;;;;;;;;;;;;;;;;;;6201432;23;19915;-88
2023/10/23 01:57:12;;;;;;;;;;;;;;;;;;6202896;23;19947;-88
2023/10/23 01:59:39;;;;;;;;;;;;;;;;;;6204219;23;19927;-88
2023/10/23 02:02:05;;;;;;;;;;;;;;;;;;6202560;23;20344;-88
2023/10/23 02:04:30;;;;;;;;;;;;;;;;;;6205492;23;19930;-88
2023/10/23 02:06:56;;;;;;;;;;;;;;;;;;6180297;23;20295;-88
2023/10/23 02:09:22;;;;;;;;;;;;;;;;;;6207071;23;20010;-88
2023/10/23 02:11:48;;;;;;;;;;;;;;;;;;6202589;23;19916;-88
2023/10/23 02:14:14;;;;;;;;;;;;;;;;;;6206711;23;19934;-88
2023/10/23 02:16:40;;;;;;;;;;;;;;;;;;6202786;23;19916;-88
2023/10/23 02:19:06;;;;;;;;;;;;;;;;;;6203936;23;20217;-88
2023/10/23 02:21:32;;;;;;;;;;;;;;;;;;6205283;23;19926;-88
2023/10/23 02:23:58;;;;;;;;;;;;;;;;;;6180127;23;19972;-88
2023/10/23 02:26:24;;;;;;;;;;;;;;;;;;6206492;23;20046;-88
2023/10/23 02:28:50;;;;;;;;;;;;;;;;;;6201190;23;19919;-88
2023/10/23 02:31:16;;;;;;;;;;;;;;;;;;6204268;23;19920;-88
2023/10/23 02:33:42;;;;;;;;;;;;;;;;;;6177753;23;19919;-88
2023/10/23 02:36:08;;;;;;;;;;;;;;;;;;6181068;23;19943;-88
2023/10/23 02:38:34;;;;;;;;;;;;;;;;;;6180925;23;19965;-88
2023/10/23 02:41:00;;;;;;;;;;;;;;;;;;6206280;23;19924;-88
2023/10/23 02:43:26;;;;;;;;;;;;;;;;;;6208385;23;19986;-88
2023/10/23 02:45:52;;;;;;;;;;;;;;;;;;6204403;23;19919;-87
2023/10/23 02:48:18;;;;;;;;;;;;;;;;;;6204345;23;19923;-87
2023/10/23 02:50:44;;;;;;;;;;;;;;;;;;6177603;23;19968;-87
2023/10/23 02:53:10;;;;;;;;;;;;;;;;;;6180948;23;20022;-87
2023/10/23 02:55:36;;;;;;;;;;;;;;;;;;6180901;23;19999;-88
2023/10/23 02:58:02;;;;;;;;;;;;;;;;;;6176095;23;19990;-88
2023/10/23 03:00:28;;;;;;;;;;;;;;;;;;6179382;23;19920;-89
2023/10/23 03:02:54;;;;;;;;;;;;;;;;;;6176671;23;19945;-88
2023/10/23 03:05:20;;;;;;;;;;;;;;;;;;6178708;23;19920;-88
2023/10/23 03:07:46;;;;;;;;;;;;;;;;;;6202950;23;19958;-88
2023/10/23 03:10:12;;;;;;;;;;;;;;;;;;6206272;23;20576;-88
2023/10/23 03:12:38;;;;;;;;;;;;;;;;;;6179418;23;20292;-88
2023/10/23 03:15:04;;;;;;;;;;;;;;;;;;6180071;23;20221;-88
2023/10/23 03:17:30;;;;;;;;;;;;;;;;;;6179917;23;20155;-88
2023/10/23 03:19:56;;;;;;;;;;;;;;;;;;6179999;23;20260;-88
2023/10/23 03:22:22;;;;;;;;;;;;;;;;;;6232147;23;19923;-87
2023/10/23 03:24:48;;;;;;;;;;;;;;;;;;6180251;23;19990;-88
2023/10/23 03:27:14;;;;;;;;;;;;;;;;;;6178186;23;19919;-88
2023/10/23 03:29:40;;;;;;;;;;;;;;;;;;6230401;23;20333;-88
2023/10/23 03:32:06;;;;;;;;;;;;;;;;;;6204569;23;20335;-88
2023/10/23 03:34:32;;;;;;;;;;;;;;;;;;6182026;23;20296;-88
2023/10/23 03:36:58;;;;;;;;;;;;;;;;;;6201484;23;19926;-90
2023/10/23 03:39:27;;;;;;;;;;;;;;;;;;6203484;23;19993;-88
2023/10/23 03:41:53;;;;;;;;;;;;;;;;;;6176928;23;19923;-88
2023/10/23 03:44:19;;;;;;;;;;;;;;;;;;6205772;23;19991;-88
2023/10/23 03:46:45;;;;;;;;;;;;;;;;;;6234536;22;19908;-88
2023/10/23 03:49:14;;;;;;;;;;;;;;;;;;6199207;23;19930;-88
2023/10/23 03:51:40;;;;;;;;;;;;;;;;;;6179008;23;20336;-87
2023/10/23 03:54:06;;;;;;;;;;;;;;;;;;6180631;23;19920;-88
2023/10/23 03:56:32;;;;;;;;;;;;;;;;;;6205354;23;20389;-88
2023/10/23 03:58:59;;;;;;;;;;;;;;;;;;6196519;23;19920;-88
2023/10/23 04:01:25;;;;;;;;;;;;;;;;;;6226901;23;20078;-88
2023/10/23 04:03:51;;;;;;;;;;;;;;;;;;6176191;23;19923;-88
2023/10/23 04:06:17;;;;;;;;;;;;;;;;;;6205618;23;19986;-88
2023/10/23 04:08:43;;;;;;;;;;;;;;;;;;6203522;23;19977;-88
2023/10/23 04:11:09;;;;;;;;;;;;;;;;;;6181888;23;20368;-88
2023/10/23 04:13:35;;;;;;;;;;;;;;;;;;6179433;23;19927;-88
2023/10/23 04:16:02;;;;;;;;;;;;;;;;;;6202304;23;19962;-88
2023/10/23 04:18:28;;;;;;;;;;;;;;;;;;6205696;23;20371;-88
2023/10/23 04:20:54;;;;;;;;;;;;;;;;;;6203068;23;19962;-88
2023/10/23 04:23:20;;;;;;;;;;;;;;;;;;6204461;23;19946;-88
2023/10/23 04:25:46;;;;;;;;;;;;;;;;;;6205381;23;19919;-88
2023/10/23 04:28:11;;;;;;;;;;;;;;;;;;6204485;23;20391;-88
2023/10/23 04:30:39;;;;;;;;;;;;;;;;;;6204729;23;19915;-88
2023/10/23 04:33:05;;;;;;;;;;;;;;;;;;6178471;23;19915;-88
2023/10/23 04:35:31;;;;;;;;;;;;;;;;;;6230956;23;20344;-88
2023/10/23 04:37:57;;;;;;;;;;;;;;;;;;6174250;23;20155;-88
2023/10/23 04:40:22;;;;;;;;;;;;;;;;;;6205131;23;19916;-88
2023/10/23 04:42:48;;;;;;;;;;;;;;;;;;6202422;23;19922;-88
2023/10/23 04:45:14;;;;;;;;;;;;;;;;;;6180153;23;19927;-88
2023/10/23 04:47:41;;;;;;;;;;;;;;;;;;6228683;23;20307;-88
2023/10/23 04:50:07;;;;;;;;;;;;;;;;;;6204721;23;19916;-88
2023/10/23 04:52:33;;;;;;;;;;;;;;;;;;6178875;23;19926;-88
2023/10/23 04:54:58;;;;;;;;;;;;;;;;;;6198805;23;19943;-88
2023/10/23 04:57:24;;;;;;;;;;;;;;;;;;6176571;23;19986;-88
2023/10/23 04:59:50;;;;;;;;;;;;;;;;;;6197337;23;20494;-88
2023/10/23 05:02:16;;;;;;;;;;;;;;;;;;6176507;23;19930;-88
2023/10/23 05:04:42;;;;;;;;;;;;;;;;;;6201306;23;19920;-88
2023/10/23 05:07:08;;;;;;;;;;;;;;;;;;6177523;23;19988;-88
2023/10/23 05:09:34;;;;;;;;;;;;;;;;;;6204123;23;20448;-88
2023/10/23 05:12:00;;;;;;;;;;;;;;;;;;6229526;23;19958;-88
2023/10/23 05:14:26;;;;;;;;;;;;;;;;;;6181107;23;19919;-87
2023/10/23 05:16:52;;;;;;;;;;;;;;;;;;6201485;22;19954;-87
2023/10/23 05:19:18;;;;;;;;;;;;;;;;;;6203619;23;19981;-90
2023/10/23 05:21:44;;;;;;;;;;;;;;;;;;6203263;23;20228;-90
2023/10/23 05:24:10;;;;;;;;;;;;;;;;;;6203084;23;19922;-89
2023/10/23 05:26:36;;;;;;;;;;;;;;;;;;6199683;23;20281;-90
2023/10/23 05:29:03;;;;;;;;;;;;;;;;;;6172830;23;20053;-89
2023/10/23 05:31:29;;;;;;;;;;;;;;;;;;6200379;23;19926;-89
2023/10/23 05:33:55;;;;;;;;;;;;;;;;;;6197649;23;20353;-89
2023/10/23 05:36:20;;;;;;;;;;;;;;;;;;6177964;23;20426;-89
2023/10/23 05:38:46;;;;;;;;;;;;;;;;;;6198134;23;19938;-89
2023/10/23 05:41:12;;;;;;;;;;;;;;;;;;6204353;23;19930;-89
2023/10/23 05:43:39;;;;;;;;;;;;;;;;;;6200315;23;19981;-90
2023/10/23 05:46:05;;;;;;;;;;;;;;;;;;6199575;23;19923;-89
2023/10/23 05:48:31;;;;;;;;;;;;;;;;;;6201911;23;20352;-90
2023/10/23 05:50:57;;;;;;;;;;;;;;;;;;6197186;23;20356;-89
2023/10/23 05:53:23;;;;;;;;;;;;;;;;;;6202356;23;19954;-90
2023/10/23 05:55:49;;;;;;;;;;;;;;;;;;6198017;23;20332;-89
2023/10/23 05:58:15;;;;;;;;;;;;;;;;;;6175076;23;19947;-89
2023/10/23 06:00:41;;;;;;;;;;;;;;;;;;6197191;23;19924;-89
2023/10/23 06:03:07;;;;;;;;;;;;;;;;;;6176121;23;19923;-89
2023/10/23 06:05:33;;;;;;;;;;;;;;;;;;6200928;23;20354;-89
2023/10/23 06:07:59;;;;;;;;;;;;;;;;;;6200835;23;20631;-90
2023/10/23 06:10:25;;;;;;;;;;;;;;;;;;6177258;23;19965;-89
2023/10/23 06:12:51;;;;;;;;;;;;;;;;;;6199155;23;20340;-89
2023/10/23 06:15:17;;;;;;;;;;;;;;;;;;6201729;23;19982;-89
2023/10/23 06:17:43;;;;;;;;;;;;;;;;;;6175363;23;20013;-89
2023/10/23 06:20:09;;;;;;;;;;;;;;;;;;6198814;23;19926;-89
2023/10/23 06:22:35;;;;;;;;;;;;;;;;;;6201178;23;19923;-89
2023/10/23 06:25:01;;;;;;;;;;;;;;;;;;6173765;23;20021;-90
2023/10/23 06:27:27;;;;;;;;;;;;;;;;;;6201997;23;19919;-89
2023/10/23 06:29:53;;;;;;;;;;;;;;;;;;6196659;23;19920;-90
2023/10/23 06:32:19;;;;;;;;;;;;;;;;;;6202511;23;20299;-89
2023/10/23 06:34:45;;;;;;;;;;;;;;;;;;6172810;23;19920;-89
2023/10/23 06:37:11;;;;;;;;;;;;;;;;;;6179757;23;20005;-89
2023/10/23 06:39:37;;;;;;;;;;;;;;;;;;6180501;23;20276;-89
2023/10/23 06:42:04;;;;;;;;;;;;;;;;;;6177897;23;19930;-89
2023/10/23 06:44:30;;;;;;;;;;;;;;;;;;6205750;23;20008;-89
2023/10/23 06:46:56;;;;;;;;;;;;;;;;;;6203523;23;19919;-89
2023/10/23 06:49:22;;;;;;;;;;;;;;;;;;6204750;23;19930;-89
2023/10/23 06:51:47;;;;;;;;;;;;;;;;;;6202298;23;20374;-89
2023/10/23 06:54:13;;;;;;;;;;;;;;;;;;6207665;23;19970;-89
2023/10/23 06:56:39;;;;;;;;;;;;;;;;;;6180931;23;19927;-89
2023/10/23 06:59:05;;;;;;;;;;;;;;;;;;6183102;23;19926;-88
2023/10/23 07:01:31;;;;;;;;;;;;;;;;;;6203937;23;20002;-89
2023/10/23 07:03:57;;;;;;;;;;;;;;;;;;6180143;23;19923;-89
2023/10/23 07:06:23;;;;;;;;;;;;;;;;;;6206138;23;19938;-89
2023/10/23 07:08:49;;;;;;;;;;;;;;;;;;6179356;23;20336;-89
2023/10/23 07:11:16;;;;;;;;;;;;;;;;;;6182317;23;19998;-89
2023/10/23 07:13:42;;;;;;;;;;;;;;;;;;6181990;23;19919;-89
2023/10/23 07:16:07;;;;;;;;;;;;;;;;;;6207611;23;19946;-89
2023/10/23 07:18:33;;;;;;;;;;;;;;;;;;6180555;23;19919;-89
2023/10/23 07:20:59;;;;;;;;;;;;;;;;;;6202748;23;20329;-89
2023/10/23 07:23:25;;;;;;;;;;;;;;;;;;6233526;23;19920;-89
2023/10/23 07:25:51;;;;;;;;;;;;;;;;;;6205414;23;19919;-89
2023/10/23 07:28:17;;;;;;;;;;;;;;;;;;6205123;23;19977;-89
2023/10/23 07:30:43;;;;;;;;;;;;;;;;;;6203823;23;19927;-89
2023/10/23 07:33:09;;;;;;;;;;;;;;;;;;6205196;23;20486;-89
2023/10/23 07:35:36;;;;;;;;;;;;;;;;;;6183199;23;19922;-89
2023/10/23 07:38:02;;;;;;;;;;;;;;;;;;6204125;23;19931;-89
2023/10/23 07:40:28;;;;;;;;;;;;;;;;;;6181609;23;19965;-90
2023/10/23 07:42:54;;;;;;;;;;;;;;;;;;6206744;23;19923;-89
2023/10/23 07:45:20;;;;;;;;;;;;;;;;;;6207718;23;20244;-89
2023/10/23 07:47:48;;;;;;;;;;;;;;;;;;6178659;23;19923;-89
2023/10/23 07:50:14;;;;;;;;;;;;;;;;;;6205642;23;20337;-90
2023/10/23 07:52:40;;;;;;;;;;;;;;;;;;6203559;23;19927;-90
2023/10/23 07:55:06;;;;;;;;;;;;;;;;;;6179218;23;19920;-89
2023/10/23 07:57:34;;;;;;;;;;;;;;;;;;6206554;23;20298;-89
2023/10/23 08:00:00;;;;;;;;;;;;;;;;;;6205137;23;20022;-89
2023/10/23 08:02:26;;;;;;;;;;;;;;;;;;6203541;23;19923;-89
2023/10/23 08:04:52;;;;;;;;;;;;;;;;;;6204937;23;19924;-89
2023/10/23 08:07:17;;;;;;;;;;;;;;;;;;6231656;23;20405;-89
2023/10/23 08:09:44;;;;;;;;;;;;;;;;;;6204435;23;19942;-89
2023/10/23 08:12:10;;;;;;;;;;;;;;;;;;6205833;23;19916;-89
2023/10/23 08:14:35;;;;;;;;;;;;;;;;;;6207032;23;20404;-89
2023/10/23 08:17:01;;;;;;;;;;;;;;;;;;6204167;22;20407;-89
2023/10/23 08:19:27;;;;;;;;;;;;;;;;;;6206784;23;20385;-89
2023/10/23 08:21:53;;;;;;;;;;;;;;;;;;6179288;23;20259;-89
2023/10/23 08:24:19;;;;;;;;;;;;;;;;;;6205620;23;19919;-89
2023/10/23 08:26:45;;;;;;;;;;;;;;;;;;6204451;23;19919;-89
2023/10/23 08:29:11;;;;;;;;;;;;;;;;;;6206542;23;19927;-89
2023/10/23 08:31:37;;;;;;;;;;;;;;;;;;6180435;23;19919;-89
2023/10/23 08:34:03;;;;;;;;;;;;;;;;;;6179364;23;19920;-89
2023/10/23 08:36:29;;;;;;;;;;;;;;;;;;6180512;23;20347;-89
2023/10/23 08:38:55;;;;;;;;;;;;;;;;;;6177237;23;19923;-89
2023/10/23 08:41:21;;;;;;;;;;;;;;;;;;6202458;23;19934;-89
2023/10/23 08:43:47;;;;;;;;;;;;;;;;;;6199817;23;19924;-89
2023/10/23 08:46:14;;;;;;;;;;;;;;;;;;6198503;23;19919;-89
2023/10/23 08:48:39;;;;;;;;;;;;;;;;;;6177511;23;19920;-90
2023/10/23 08:51:05;;;;;;;;;;;;;;;;;;6196646;23;19995;-90
2023/10/23 08:53:31;;;;;;;;;;;;;;;;;;6200273;23;20299;-89
2023/10/23 08:55:57;;;;;;;;;;;;;;;;;;6200129;23;19923;-89
2023/10/23 08:58:23;;;;;;;;;;;;;;;;;;6177614;23;19926;-89
2023/10/23 09:00:49;;;;;;;;;;;;;;;;;;6201454;23;19924;-89
2023/10/23 09:03:15;;;;;;;;;;;;;;;;;;6198162;23;19999;-89
2023/10/23 09:05:41;;;;;;;;;;;;;;;;;;6174463;23;19994;-90
2023/10/23 09:08:07;;;;;;;;;;;;;;;;;;6178991;23;19920;-89
2023/10/23 09:10:33;;;;;;;;;;;;;;;;;;6206488;23;19920;-89
2023/10/23 09:13:00;;;;;;;;;;;;;;;;;;6203486;23;20293;-90
2023/10/23 09:15:26;;;;;;;;;;;;;;;;;;6179494;23;19919;-89
2023/10/23 09:17:52;;;;;;;;;;;;;;;;;;6175186;23;19919;-90
2023/10/23 09:20:22;;;;;;;;;;;;;;;;;;6181681;23;20336;-89
2023/10/23 09:22:52;;;;;;;;;;;;;;;;;;6202574;23;19924;-89
2023/10/23 09:25:18;;;;;;;;;;;;;;;;;;6231620;23;19965;-90
2023/10/23 09:27:44;;;;;;;;;;;;;;;;;;6199675;23;19926;-90
2023/10/23 09:30:10;;;;;;;;;;;;;;;;;;6203896;23;19991;-89
2023/10/23 09:32:36;;;;;;;;;;;;;;;;;;6202733;23;19920;-89
2023/10/23 09:35:02;;;;;;;;;;;;;;;;;;6172978;23;19926;-90
2023/10/23 09:37:28;;;;;;;;;;;;;;;;;;6202991;23;20268;-90
2023/10/23 09:39:54;;;;;;;;;;;;;;;;;;6197961;23;20225;-89
2023/10/23 09:42:20;;;;;;;;;;;;;;;;;;6175024;23;20364;-90
2023/10/23 09:44:46;;;;;;;;;;;;;;;;;;6176530;23;19919;-90
2023/10/23 09:47:12;;;;;;;;;;;;;;;;;;6203264;23;19927;-90
2023/10/23 09:49:38;;;;;;;;;;;;;;;;;;6202034;23;19953;-90
2023/10/23 09:52:04;;;;;;;;;;;;;;;;;;6227838;23;20556;-90
2023/10/23 09:54:30;;;;;;;;;;;;;;;;;;6178247;23;19970;-90
2023/10/23 09:56:56;;;;;;;;;;;;;;;;;;6200720;23;19919;-90
2023/10/23 09:59:22;;;;;;;;;;;;;;;;;;6201755;23;19947;-90
2023/10/23 10:01:48;;;;;;;;;;;;;;;;;;6195804;23;20170;-90
2023/10/23 10:04:14;;;;;;;;;;;;;;;;;;6177595;23;20340;-90
2023/10/23 10:06:42;;;;;;;;;;;;;;;;;;6198287;23;19920;-90
2023/10/23 10:09:12;;;;;;;;;;;;;;;;;;6204883;23;19919;-90
2023/10/23 10:11:38;;;;;;;;;;;;;;;;;;6231006;23;19926;-90
2023/10/23 10:14:05;;;;;;;;;;;;;;;;;;6179736;23;19919;-90
2023/10/23 10:16:31;;;;;;;;;;;;;;;;;;6201730;23;19923;-90
2023/10/23 10:18:56;;;;;;;;;;;;;;;;;;6196999;23;19926;-90
2023/10/23 10:21:23;;;;;;;;;;;;;;;;;;6204088;23;19923;-90
2023/10/23 10:23:51;;;;;;;;;;;;;;;;;;6197088;23;19919;-95
2023/10/23 10:26:18;;;;;;;;;;;;;;;;;;6182837;23;20053;-90
2023/10/23 10:28:44;;;;;;;;;;;;;;;;;;6204048;23;19985;-91
2023/10/23 10:31:10;;;;;;;;;;;;;;;;;;6205412;23;20332;-91
2023/10/23 10:33:40;;;;;;;;;;;;;;;;;;6181005;23;20247;-91
2023/10/23 10:36:06;;;;;;;;;;;;;;;;;;6206761;23;20376;-90
2023/10/23 10:38:32;;;;;;;;;;;;;;;;;;6206723;23;20010;-90
2023/10/23 10:41:02;;;;;;;;;;;;;;;;;;6177963;23;20078;-90
2023/10/23 10:43:28;;;;;;;;;;;;;;;;;;6206123;23;19919;-91
2023/10/23 10:45:55;;;;;;;;;;;;;;;;;;6232151;23;19922;-91
2023/10/23 10:48:21;;;;;;;;;;;;;;;;;;6205547;23;19959;-91
2023/10/23 10:50:47;;;;;;;;;;;;;;;;;;6229290;23;19958;-91
2023/10/23 10:53:13;;;;;;;;;;;;;;;;;;6207354;23;19919;-91
2023/10/23 10:55:39;;;;;;;;;;;;;;;;;;6203826;23;19920;-91
2023/10/23 10:58:06;;;;;;;;;;;;;;;;;;6206829;23;19963;-90
2023/10/23 11:00:32;;;;;;;;;;;;;;;;;;6207853;23;19950;-91
2023/10/23 11:02:58;;;;;;;;;;;;;;;;;;6201878;23;19931;-91
2023/10/23 11:05:24;;;;;;;;;;;;;;;;;;6201744;23;19915;-91
2023/10/23 11:07:51;;;;;;;;;;;;;;;;;;6202100;23;19950;-89
2023/10/23 11:10:17;;;;;;;;;;;;;;;;;;6206840;23;20340;-91
2023/10/23 11:12:44;;;;;;;;;;;;;;;;;;6203759;23;20233;-93
2023/10/23 11:15:13;;;;;;;;;;;;;;;;;;6205049;23;19920;-91
2023/10/23 11:17:39;;;;;;;;;;;;;;;;;;6205451;23;20401;-90
2023/10/23 11:20:06;;;;;;;;;;;;;;;;;;6234125;23;19919;-91
2023/10/23 11:22:32;;;;;;;;;;;;;;;;;;6204981;23;19930;-91
2023/10/23 11:24:58;;;;;;;;;;;;;;;;;;6203865;23;20340;-91
2023/10/23 11:27:24;;;;;;;;;;;;;;;;;;6204772;23;19919;-90
2023/10/23 11:29:50;;;;;;;;;;;;;;;;;;6202283;23;19926;-90
2023/10/23 11:32:16;;;;;;;;;;;;;;;;;;6209343;23;19923;-91
2023/10/23 11:34:42;;;;;;;;;;;;;;;;;;6204583;23;19998;-91
2023/10/23 11:37:08;;;;;;;;;;;;;;;;;;6234159;23;19916;-91
2023/10/23 11:39:35;;;;;;;;;;;;;;;;;;6209220;23;20252;-91
2023/10/23 11:42:01;;;;;;;;;;;;;;;;;;6207249;23;20042;-91
2023/10/23 11:44:27;;;;;;;;;;;;;;;;;;6208354;23;19958;-91
2023/10/23 11:46:53;;;;;;;;;;;;;;;;;;6206718;23;20249;-91
2023/10/23 11:49:19;;;;;;;;;;;;;;;;;;6183232;23;19939;-90
2023/10/23 11:51:45;;;;;;;;;;;;;;;;;;6206368;23;19976;-95
2023/10/23 11:54:11;;;;;;;;;;;;;;;;;;6183473;23;19923;-90
2023/10/23 11:56:37;;;;;;;;;;;;;;;;;;6208540;23;19926;-91
2023/10/23 11:59:06;;;;;;;;;;;;;;;;;;6178437;23;19941;-91
2023/10/23 12:01:32;;;;;;;;;;;;;;;;;;6181288;23;20352;-91
2023/10/23 12:03:58;;;;;;;;;;;;;;;;;;6203250;23;19955;-91
2023/10/23 12:06:24;;;;;;;;;;;;;;;;;;6178373;23;20538;-90
2023/10/23 12:08:50;;;;;;;;;;;;;;;;;;6174195;23;20028;-91
2023/10/23 12:11:16;;;;;;;;;;;;;;;;;;6207023;23;20345;-91
2023/10/23 12:13:42;;;;;;;;;;;;;;;;;;6204587;23;19946;-91
2023/10/23 12:16:09;;;;;;;;;;;;;;;;;;6177546;23;19920;-91
2023/10/23 12:18:35;;;;;;;;;;;;;;;;;;6206428;23;19920;-91
2023/10/23 12:21:01;;;;;;;;;;;;;;;;;;6202217;23;19954;-91
2023/10/23 12:23:27;;;;;;;;;;;;;;;;;;6203949;23;19942;-91
2023/10/23 12:25:54;;;;;;;;;;;;;;;;;;6203669;23;20412;-91
2023/10/23 12:28:20;;;;;;;;;;;;;;;;;;6204207;23;20394;-91
2023/10/23 12:30:46;;;;;;;;;;;;;;;;;;6201873;23;19951;-92
2023/10/23 12:33:12;;;;;;;;;;;;;;;;;;6205819;23;20361;-91
2023/10/23 12:35:38;;;;;;;;;;;;;;;;;;6205927;23;20390;-91
2023/10/23 12:38:04;;;;;;;;;;;;;;;;;;6203392;23;20328;-91
2023/10/23 12:40:30;;;;;;;;;;;;;;;;;;6232359;23;20501;-91
2023/10/23 12:42:56;;;;;;;;;;;;;;;;;;6202659;23;19924;-91
2023/10/23 12:45:22;;;;;;;;;;;;;;;;;;6204437;23;19926;-91
2023/10/23 12:47:48;;;;;;;;;;;;;;;;;;6202838;23;19923;-91
2023/10/23 12:50:15;;;;;;;;;;;;;;;;;;6180369;23;19955;-91
2023/10/23 12:52:41;;;;;;;;;;;;;;;;;;6175312;23;19924;-90
2023/10/23 12:55:07;;;;;;;;;;;;;;;;;;6182625;23;20241;-91
2023/10/23 12:57:33;;;;;;;;;;;;;;;;;;6227027;23;19989;-91
2023/10/23 12:59:59;;;;;;;;;;;;;;;;;;6201381;23;20440;-92
2023/10/23 13:02:25;;;;;;;;;;;;;;;;;;6202216;23;20233;-91
2023/10/23 13:04:51;;;;;;;;;;;;;;;;;;6198366;23;19977;-91
2023/10/23 13:07:17;;;;;;;;;;;;;;;;;;6202290;23;19919;-92
2023/10/23 13:09:43;;;;;;;;;;;;;;;;;;6201589;23;19930;-91
2023/10/23 13:12:09;;;;;;;;;;;;;;;;;;6180530;23;20329;-91
2023/10/23 13:14:35;;;;;;;;;;;;;;;;;;6230847;23;20343;-92
2023/10/23 13:17:00;;;;;;;;;;;;;;;;;;6178836;22;19923;-91
2023/10/23 13:19:26;;;;;;;;;;;;;;;;;;6180155;23;19927;-91
2023/10/23 13:21:52;;;;;;;;;;;;;;;;;;6199798;23;19947;-91
2023/10/23 13:24:18;;;;;;;;;;;;;;;;;;6178769;23;19916;-92
2023/10/23 13:26:44;;;;;;;;;;;;;;;;;;6201166;23;19920;-91
2023/10/23 13:29:10;;;;;;;;;;;;;;;;;;6204209;23;19919;-92
2023/10/23 13:31:36;;;;;;;;;;;;;;;;;;6181137;23;19986;-91
2023/10/23 13:34:02;;;;;;;;;;;;;;;;;;6230378;23;19920;-91
2023/10/23 13:36:28;;;;;;;;;;;;;;;;;;6230064;23;19966;-91
2023/10/23 13:38:55;;;;;;;;;;;;;;;;;;6201994;23;20352;-91
2023/10/23 13:41:21;;;;;;;;;;;;;;;;;;6180524;23;19934;-91
2023/10/23 13:43:47;;;;;;;;;;;;;;;;;;6203639;23;19987;-91
2023/10/23 13:46:13;;;;;;;;;;;;;;;;;;6204022;23;19984;-91
2023/10/23 13:48:39;;;;;;;;;;;;;;;;;;6181482;23;19920;-91
2023/10/23 13:51:05;;;;;;;;;;;;;;;;;;6207474;23;19947;-92
2023/10/23 13:53:32;;;;;;;;;;;;;;;;;;6181760;23;19950;-92
2023/10/23 13:55:58;;;;;;;;;;;;;;;;;;6204168;23;19965;-92
2023/10/23 13:58:24;;;;;;;;;;;;;;;;;;6206973;23;19919;-91
2023/10/23 14:00:50;;;;;;;;;;;;;;;;;;6178310;23;19926;-91
2023/10/23 14:03:16;;;;;;;;;;;;;;;;;;6181928;23;19915;-91
2023/10/23 14:05:42;;;;;;;;;;;;;;;;;;6172875;23;20290;-91
2023/10/23 14:08:08;;;;;;;;;;;;;;;;;;6175845;23;19920;-91
2023/10/23 14:10:34;;;;;;;;;;;;;;;;;;6198065;23;20264;-91
2023/10/23 14:13:00;;;;;;;;;;;;;;;;;;6174309;23;20282;-91
2023/10/23 14:15:26;;;;;;;;;;;;;;;;;;6200242;23;19927;-91
2023/10/23 14:17:53;;;;;;;;;;;;;;;;;;6174031;23;19919;-90
2023/10/23 14:20:19;;;;;;;;;;;;;;;;;;6175154;23;20280;-91
2023/10/23 14:22:45;;;;;;;;;;;;;;;;;;6175768;23;19934;-91
2023/10/23 14:25:11;;;;;;;;;;;;;;;;;;6197038;23;20341;-91
2023/10/23 14:27:37;;;;;;;;;;;;;;;;;;6200309;23;19926;-91
2023/10/23 14:30:03;;;;;;;;;;;;;;;;;;6196696;23;19920;-91
2023/10/23 14:32:29;;;;;;;;;;;;;;;;;;6176674;23;19923;-91
2023/10/23 14:34:55;;;;;;;;;;;;;;;;;;6173570;23;20378;-91
2023/10/23 14:37:21;;;;;;;;;;;;;;;;;;6201110;23;20256;-92
2023/10/23 14:39:47;;;;;;;;;;;;;;;;;;6171850;23;19919;-91
2023/10/23 14:42:13;;;;;;;;;;;;;;;;;;6202900;23;19924;-90
2023/10/23 14:44:39;;;;;;;;;;;;;;;;;;6204179;23;19944;-90
2023/10/23 14:47:05;;;;;;;;;;;;;;;;;;6112682;23;2061283;-91
2023/10/23 14:49:31;;;;;;;;;;;;;;;;;;6182905;23;19975;-90
2023/10/23 14:51:57;;;;;;;;;;;;;;;;;;6177565;23;19920;-91
2023/10/23 14:54:23;;;;;;;;;;;;;;;;;;6203774;23;20674;-91
2023/10/23 14:56:49;;;;;;;;;;;;;;;;;;6227061;23;20351;-92
2023/10/23 14:59:15;;;;;;;;;;;;;;;;;;6182036;23;19919;-91
2023/10/23 15:01:41;;;;;;;;;;;;;;;;;;6177017;23;19930;-91
2023/10/23 15:04:07;;;;;;;;;;;;;;;;;;6208105;23;19955;-91
2023/10/23 15:06:33;;;;;;;;;;;;;;;;;;6201372;23;19947;-92
2023/10/23 15:08:59;;;;;;;;;;;;;;;;;;6226515;23;20286;-90
2023/10/23 15:11:25;;;;;;;;;;;;;;;;;;6204564;23;19972;-91
2023/10/23 15:13:53;;;;;;;;;;;;;;;;;;6200562;23;19927;-92
2023/10/23 15:16:19;;;;;;;;;;;;;;;;;;6179540;23;19923;-91
2023/10/23 15:18:45;;;;;;;;;;;;;;;;;;6203266;23;19958;-91
2023/10/23 15:21:11;;;;;;;;;;;;;;;;;;6179730;23;19970;-91
2023/10/23 15:23:37;;;;;;;;;;;;;;;;;;6182693;23;20332;-92
2023/10/23 15:26:03;;;;;;;;;;;;;;;;;;6176160;23;19925;-92
2023/10/23 15:28:29;;;;;;;;;;;;;;;;;;6200493;23;19969;-92
2023/10/23 15:30:55;;;;;;;;;;;;;;;;;;6173026;23;19923;-91
2023/10/23 15:33:21;;;;;;;;;;;;;;;;;;6202690;23;19999;-92
2023/10/23 15:35:51;;;;;;;;;;;;;;;;;;6173627;23;19919;-91
2023/10/23 15:38:17;;;;;;;;;;;;;;;;;;6180164;23;19916;-91
2023/10/23 15:40:43;;;;;;;;;;;;;;;;;;6176480;23;19922;-92
2023/10/23 15:43:09;;;;;;;;;;;;;;;;;;6227843;23;19923;-90
2023/10/23 15:45:35;;;;;;;;;;;;;;;;;;6198202;23;19920;-91
2023/10/23 15:48:01;;;;;;;;;;;;;;;;;;6170723;23;20352;-92
2023/10/23 15:50:27;;;;;;;;;;;;;;;;;;6201815;23;20258;-92
2023/10/23 15:52:52;;;;;;;;;;;;;;;;;;6199796;23;19919;-91
2023/10/23 15:55:19;;;;;;;;;;;;;;;;;;6204965;23;19958;-92
2023/10/23 15:57:45;;;;;;;;;;;;;;;;;;6204020;23;19915;-91
2023/10/23 16:00:12;;;;;;;;;;;;;;;;;;6178443;23;19932;-91
2023/10/23 16:02:38;;;;;;;;;;;;;;;;;;6205507;23;19923;-91
2023/10/23 16:05:04;;;;;;;;;;;;;;;;;;6203939;23;20034;-91
2023/10/23 16:07:31;;;;;;;;;;;;;;;;;;6181781;23;20325;-91
2023/10/23 16:09:56;;;;;;;;;;;;;;;;;;6176978;23;19926;-91
2023/10/23 16:12:23;;;;;;;;;;;;;;;;;;6203123;23;19919;-89
2023/10/23 16:14:49;;;;;;;;;;;;;;;;;;6203191;23;20344;-90
2023/10/23 16:17:15;;;;;;;;;;;;;;;;;;6205861;22;20333;-90
2023/10/23 16:19:41;;;;;;;;;;;;;;;;;;6203375;23;19950;-90
2023/10/23 16:22:07;;;;;;;;;;;;;;;;;;6203510;23;19930;-90
2023/10/23 16:24:33;;;;;;;;;;;;;;;;;;6202789;23;19919;-90
2023/10/23 16:26:59;;;;;;;;;;;;;;;;;;6176182;23;20816;-91
2023/10/23 16:29:25;;;;;;;;;;;;;;;;;;6205506;23;20198;-90
2023/10/23 16:31:51;;;;;;;;;;;;;;;;;;6202756;23;19923;-90
2023/10/23 16:34:17;;;;;;;;;;;;;;;;;;6182138;23;20325;-90
2023/10/23 16:36:43;;;;;;;;;;;;;;;;;;6204007;23;19919;-90